createdAt,value
2019-06-07T00:02:59.446Z,4.50
2019-06-07T00:08:21.687Z,4.75
2019-06-07T00:13:20.375Z,4.35
2019-06-07T00:18:26.223Z,4.80
2019-06-07T00:23:31.519Z,4.60
2019-06-07T00:28:36.449Z,4.55
2019-06-07T00:33:41.410Z,4.17
2019-06-07T00:38:46.505Z,4.42
2019-06-07T00:43:51.451Z,4.08
2019-06-07T00:49:02.112Z,4.10
2019-06-07T00:54:07.112Z,4.15
2019-06-07T00:59:16.134Z,4.15
2019-06-07T01:04:21.246Z,4.07
2019-06-07T01:09:26.017Z,4.20
2019-06-07T01:14:31.249Z,4.03
2019-06-07T01:19:36.416Z,4.28
2019-06-07T01:24:43.688Z,4.20
2019-06-07T01:29:48.526Z,3.80
2019-06-07T01:35:00.544Z,3.90
2019-06-07T01:40:06.017Z,3.92
2019-06-07T01:45:11.855Z,3.73
2019-06-07T01:50:22.574Z,4.10
2019-06-07T01:55:29.212Z,3.65
2019-06-07T02:00:32.889Z,3.70
2019-06-07T02:05:38.236Z,3.90
2019-06-07T02:10:43.072Z,3.93
2019-06-07T02:15:48.022Z,3.70
2019-06-07T02:20:53.855Z,3.65
2019-06-07T02:25:58.724Z,3.15
2019-06-07T02:31:05.446Z,3.25
2019-06-07T02:36:16.315Z,3.00
2019-06-07T02:41:25.793Z,3.15
2019-06-07T02:46:36.131Z,2.70
2019-06-07T02:51:41.109Z,2.67
2019-06-07T02:56:56.704Z,2.70
2019-06-07T03:01:49.566Z,2.77
2019-06-07T03:06:56.908Z,2.40
2019-06-07T03:12:04.329Z,3.17
2019-06-07T03:17:21.721Z,3.00
2019-06-07T03:22:26.827Z,2.90
2019-06-07T03:27:40.055Z,3.12
2019-06-07T03:32:46.795Z,4.05
2019-06-07T03:37:45.475Z,3.92
2019-06-07T03:42:52.007Z,3.50
2019-06-07T03:47:56.898Z,4.15
2019-06-07T03:53:02.425Z,4.10
2019-06-07T04:03:33.057Z,4.50
2019-06-07T04:08:21.550Z,4.92
2019-06-07T04:13:28.911Z,4.87
2019-06-07T04:18:35.645Z,4.50
2019-06-07T04:23:45.315Z,4.83
2019-06-07T04:33:53.528Z,3.90
2019-06-07T04:38:59.780Z,3.60
2019-06-07T04:44:06.436Z,3.98
2019-06-07T04:49:15.062Z,4.15
2019-06-07T04:54:20.068Z,3.58
2019-06-07T05:00:01.033Z,3.65
2019-06-07T05:04:36.284Z,3.72
2019-06-07T05:09:43.317Z,4.00
2019-06-07T05:14:47.734Z,3.30
2019-06-07T05:19:52.464Z,4.05
2019-06-07T05:24:57.242Z,2.65
2019-06-07T05:30:36.480Z,2.70
2019-06-07T05:35:15.417Z,2.80
2019-06-07T05:40:34.960Z,2.73
2019-06-07T05:45:44.985Z,2.40
2019-06-07T05:50:56.156Z,2.17
2019-06-07T05:55:53.060Z,1.87
2019-06-07T06:01:41.068Z,1.50
2019-06-07T06:06:05.812Z,2.00
2019-06-07T06:11:10.617Z,1.83
2019-06-07T06:16:15.303Z,2.10
2019-06-07T06:21:20.586Z,2.10
2019-06-07T06:26:25.526Z,1.83
2019-06-07T06:31:30.425Z,1.90
2019-06-07T06:36:37.238Z,1.90
2019-06-07T06:41:49.429Z,2.20
2019-06-07T06:46:57.042Z,2.27
2019-06-07T06:51:54.954Z,2.20
2019-06-07T06:57:18.329Z,2.25
2019-06-07T07:02:08.056Z,2.10
2019-06-07T07:07:13.616Z,1.90
2019-06-07T07:12:18.420Z,1.32
2019-06-07T07:17:47.058Z,2.10
2019-06-07T07:22:32.724Z,2.12
2019-06-07T07:27:40.257Z,2.10
2019-06-07T07:32:46.541Z,2.25
2019-06-07T07:38:00.824Z,1.98
2019-06-07T07:43:05.834Z,2.30
2019-06-07T07:48:17.665Z,2.60
2019-06-07T07:53:18.292Z,1.55
2019-06-07T07:58:23.287Z,2.37
2019-06-07T08:03:29.128Z,2.75
2019-06-07T08:08:34.101Z,2.77
2019-06-07T08:13:39.133Z,2.12
2019-06-07T08:18:44.002Z,1.90
2019-06-07T08:23:51.624Z,2.37
2019-06-07T08:28:58.917Z,2.20
2019-06-07T08:34:02.266Z,1.80
2019-06-07T08:39:08.569Z,2.15
2019-06-07T08:44:23.770Z,2.17
2019-06-07T08:49:26.800Z,2.15
2019-06-07T08:54:31.627Z,2.50
2019-06-07T08:59:36.460Z,1.77
2019-06-07T09:04:41.176Z,2.47
2019-06-07T09:09:46.018Z,1.80
2019-06-07T09:15:07.203Z,2.37
2019-06-07T09:19:58.951Z,2.47
2019-06-07T09:25:14.668Z,2.20
2019-06-07T09:30:18.538Z,2.20
2019-06-07T09:35:24.501Z,2.03
2019-06-07T09:40:31.342Z,2.40
2019-06-07T09:45:36.374Z,2.10
2019-06-07T09:50:41.538Z,2.47
2019-06-07T09:55:46.491Z,2.05
2019-06-07T10:00:51.384Z,2.42
2019-06-07T10:05:59.551Z,2.35
2019-06-07T10:11:03.008Z,2.30
2019-06-07T10:16:08.805Z,2.33
2019-06-07T10:21:15.151Z,2.70
2019-06-07T10:26:20.489Z,3.17
2019-06-07T10:31:25.308Z,2.33
2019-06-07T10:36:37.233Z,2.60
2019-06-07T10:41:43.034Z,2.87
2019-06-07T10:46:48.087Z,2.80
2019-06-07T10:51:53.185Z,2.40
2019-06-07T10:56:58.000Z,2.70
2019-06-07T11:02:03.422Z,2.70
2019-06-07T11:07:09.982Z,2.58
2019-06-07T11:12:15.395Z,3.42
2019-06-07T11:17:20.701Z,3.02
2019-06-07T11:22:25.573Z,2.72
2019-06-07T11:27:30.392Z,2.55
2019-06-07T11:32:35.268Z,2.58
2019-06-07T11:37:46.427Z,3.20
2019-06-07T11:42:52.889Z,2.87
2019-06-07T11:47:59.864Z,2.30
2019-06-07T11:53:04.761Z,3.00
2019-06-07T11:58:13.383Z,3.35
2019-06-07T12:03:17.917Z,2.65
2019-06-07T12:08:28.661Z,2.83
2019-06-07T12:13:33.511Z,2.90
2019-06-07T12:18:46.376Z,3.10
2019-06-07T12:23:51.265Z,3.58
2019-06-07T12:28:56.226Z,2.77
2019-06-07T12:34:01.078Z,3.90
2019-06-07T12:39:08.554Z,3.35
2019-06-07T12:44:14.602Z,3.33
2019-06-07T12:49:19.571Z,3.35
2019-06-07T12:54:24.550Z,3.60
2019-06-07T12:59:29.450Z,3.30
2019-06-07T13:04:35.839Z,3.87
2019-06-07T13:09:40.953Z,4.20
2019-06-07T13:14:45.779Z,3.83
2019-06-07T13:19:58.501Z,4.05
2019-06-07T13:25:03.451Z,4.20
2019-06-07T13:30:10.973Z,4.15
2019-06-07T13:35:18.156Z,4.20
2019-06-07T13:40:23.352Z,4.23
2019-06-07T13:45:31.098Z,4.00
2019-06-07T13:50:35.860Z,4.28
2019-06-07T13:55:40.665Z,3.62
2019-06-07T14:00:45.448Z,4.47
2019-06-07T14:05:57.337Z,3.60
2019-06-07T14:11:02.181Z,3.42
2019-06-07T14:16:07.083Z,4.37
2019-06-07T14:21:11.927Z,4.17
2019-06-07T14:26:16.854Z,3.20
2019-06-07T14:31:22.157Z,3.20
2019-06-07T14:36:28.835Z,4.28
2019-06-07T14:41:33.785Z,4.30
2019-06-07T14:46:38.940Z,3.25
2019-06-07T14:51:43.733Z,3.85
2019-06-07T14:56:48.700Z,3.20
2019-06-07T15:01:53.708Z,3.75
2019-06-07T15:06:58.923Z,2.90
2019-06-07T15:12:04.822Z,4.05
2019-06-07T15:17:09.818Z,3.42
2019-06-07T15:22:14.867Z,3.75
2019-06-07T15:27:19.910Z,4.08
2019-06-07T15:32:24.763Z,3.80
2019-06-07T15:37:30.515Z,3.97
2019-06-07T15:42:51.375Z,3.92
2019-06-07T15:47:45.355Z,3.55
2019-06-07T15:52:50.235Z,4.10
2019-06-07T15:57:55.194Z,3.30
2019-06-07T16:03:00.454Z,3.85
2019-06-07T16:08:12.461Z,4.62
2019-06-07T16:13:17.309Z,4.67
2019-06-07T16:18:22.246Z,3.83
2019-06-07T16:23:27.025Z,3.42
2019-06-07T16:28:31.892Z,3.42
2019-06-07T16:33:36.816Z,3.80
2019-06-07T16:38:48.627Z,3.77
2019-06-07T16:44:03.775Z,4.05
2019-06-07T16:49:08.731Z,3.75
2019-06-07T16:54:13.639Z,3.50
2019-06-07T16:59:18.568Z,3.65
2019-06-07T17:04:23.395Z,4.13
2019-06-07T17:09:28.486Z,3.98
2019-06-07T17:14:33.435Z,3.67
2019-06-07T17:19:38.841Z,2.98
2019-06-07T17:24:45.423Z,3.72
2019-06-07T17:29:50.494Z,5.17
2019-06-07T17:34:57.871Z,4.92
2019-06-07T17:40:02.828Z,4.80
2019-06-07T17:45:10.468Z,5.37
2019-06-07T17:50:15.717Z,4.87
2019-06-07T17:55:20.687Z,6.03
2019-06-07T18:00:33.124Z,5.70
2019-06-07T18:05:37.555Z,6.95
2019-06-07T18:10:43.766Z,7.22
2019-06-07T18:15:53.979Z,7.30
2019-06-07T18:20:58.194Z,7.05
2019-06-07T18:26:08.024Z,7.65
2019-06-07T18:31:12.793Z,7.57
2019-06-07T18:36:17.695Z,7.63
2019-06-07T18:41:22.535Z,7.15
2019-06-07T18:46:27.825Z,8.15
2019-06-07T18:51:32.742Z,7.72
2019-06-07T18:56:38.975Z,7.87
2019-06-07T19:01:43.970Z,9.55
2019-06-07T19:06:50.312Z,10.38
2019-06-07T19:11:55.240Z,11.05
2019-06-07T19:17:01.205Z,12.07
2019-06-07T19:22:06.147Z,11.93
2019-06-07T19:27:11.121Z,11.80
2019-06-07T19:32:16.327Z,11.22
2019-06-07T19:37:21.217Z,13.18
2019-06-07T19:42:26.113Z,13.10
2019-06-07T19:47:31.009Z,13.53
2019-06-07T19:52:35.946Z,13.22
2019-06-07T19:57:40.932Z,13.30
2019-06-07T20:02:45.907Z,13.40
2019-06-07T20:08:02.760Z,13.00
2019-06-07T20:13:08.072Z,12.70
2019-06-07T20:18:13.309Z,12.75
2019-06-07T20:23:18.750Z,14.03
2019-06-07T20:28:23.635Z,13.55
2019-06-07T20:33:28.407Z,13.93
2019-06-07T20:38:33.356Z,13.72
2019-06-07T20:43:38.728Z,12.98
2019-06-07T20:48:46.896Z,12.60
2019-06-07T20:53:51.792Z,12.83
2019-06-07T20:58:58.508Z,12.73
2019-06-07T21:04:05.285Z,11.86
2019-06-07T21:09:10.477Z,12.80
2019-06-07T21:14:15.324Z,12.33
2019-06-07T21:19:20.048Z,12.25
2019-06-07T21:24:25.186Z,11.83
2019-06-07T21:29:30.058Z,12.05
2019-06-07T21:34:36.587Z,10.72
2019-06-07T21:39:41.459Z,11.63
2019-06-07T21:44:46.291Z,12.20
2019-06-07T21:50:05.291Z,11.18
2019-06-07T21:55:11.855Z,11.33
2019-06-07T22:00:22.989Z,10.50
2019-06-07T22:05:29.601Z,10.72
2019-06-07T22:10:34.777Z,10.60
2019-06-07T22:15:39.575Z,10.72
2019-06-07T22:20:45.521Z,10.60
2019-06-07T22:25:58.441Z,10.88
2019-06-07T22:31:03.500Z,10.90
2019-06-07T22:36:08.883Z,11.05
2019-06-07T22:41:14.022Z,11.23
2019-06-07T22:46:19.315Z,11.33
2019-06-07T22:51:24.393Z,11.28
2019-06-07T22:56:47.203Z,11.20
2019-06-07T23:02:01.187Z,12.13
2019-06-07T23:07:06.315Z,11.48
2019-06-07T23:12:11.237Z,11.40
2019-06-07T23:17:17.723Z,11.18
2019-06-07T23:22:22.793Z,12.53
2019-06-07T23:27:27.850Z,11.57
2019-06-07T23:32:32.925Z,11.55
2019-06-07T23:37:38.670Z,11.53
2019-06-07T23:42:43.592Z,10.85
2019-06-07T23:47:48.562Z,11.12
2019-06-07T23:52:54.509Z,11.88
2019-06-07T23:57:59.379Z,11.50
